sensor_id;sensor_type;location;lat;lon;timestamp;P1;durP1;ratioP1;P2;durP2;ratioP2
34926;SDS011;21132;48.308;14.274;2022-11-30T08:58:43;44.00;;;25.52;;
34926;SDS011;21132;48.308;14.274;2022-11-30T09:03:49;39.75;;;23.77;;
34926;SDS011;21132;48.308;14.274;2022-11-30T09:06:25;41.38;;;24.70;;
34926;SDS011;21132;48.308;14.274;2022-11-30T09:08:59;45.47;;;25.92;;
34926;SDS011;21132;48.308;14.274;2022-11-30T09:11:31;46.55;;;26.80;;
34926;SDS011;21132;48.308;14.274;2022-11-30T09:14:09;46.65;;;26.45;;
34926;SDS011;21132;48.308;14.274;2022-11-30T09:16:43;43.95;;;24.90;;
34926;SDS011;21132;48.308;14.274;2022-11-30T09:19:16;44.17;;;24.17;;
34926;SDS011;21132;48.308;14.274;2022-11-30T09:21:46;44.00;;;25.60;;
34926;SDS011;21132;48.308;14.274;2022-11-30T09:24:19;38.67;;;23.38;;
34926;SDS011;21132;48.308;14.274;2022-11-30T09:26:53;46.95;;;26.88;;
34926;SDS011;21132;48.308;14.274;2022-11-30T09:29:25;47.17;;;25.95;;
34926;SDS011;21132;48.308;14.274;2022-11-30T09:31:56;50.40;;;25.50;;
34926;SDS011;21132;48.308;14.274;2022-11-30T09:34:22;50.33;;;27.90;;
34926;SDS011;21132;48.308;14.274;2022-11-30T09:36:48;47.53;;;27.13;;
34926;SDS011;21132;48.308;14.274;2022-11-30T09:39:13;47.28;;;25.60;;
34926;SDS011;21132;48.308;14.274;2022-11-30T09:47:21;47.25;;;26.63;;
34926;SDS011;21132;48.308;14.274;2022-11-30T09:50:09;49.80;;;25.10;;
34926;SDS011;21132;48.308;14.274;2022-11-30T09:52:54;49.30;;;26.88;;
34926;SDS011;21132;48.308;14.274;2022-11-30T09:55:30;46.10;;;26.58;;
34926;SDS011;21132;48.308;14.274;2022-11-30T09:58:03;46.45;;;26.13;;
34926;SDS011;21132;48.308;14.274;2022-11-30T10:00:31;48.13;;;26.60;;
34926;SDS011;21132;48.308;14.274;2022-11-30T10:03:00;47.60;;;25.95;;
34926;SDS011;21132;48.308;14.274;2022-11-30T10:08:24;46.97;;;26.23;;
34926;SDS011;21132;48.308;14.274;2022-11-30T10:17:03;51.65;;;27.52;;
34926;SDS011;21132;48.308;14.274;2022-11-30T10:25:23;49.97;;;25.15;;
34926;SDS011;21132;48.308;14.274;2022-11-30T10:27:59;46.15;;;26.05;;
34926;SDS011;21132;48.308;14.274;2022-11-30T10:30:43;51.63;;;25.30;;
34926;SDS011;21132;48.308;14.274;2022-11-30T10:33:15;58.30;;;26.42;;
34926;SDS011;21132;48.308;14.274;2022-11-30T10:35:47;41.95;;;23.98;;
34926;SDS011;21132;48.308;14.274;2022-11-30T10:38:23;50.80;;;25.90;;
34926;SDS011;21132;48.308;14.274;2022-11-30T10:43:30;44.28;;;25.52;;
34926;SDS011;21132;48.308;14.274;2022-11-30T10:46:02;40.85;;;24.40;;
34926;SDS011;21132;48.308;14.274;2022-11-30T10:48:35;42.80;;;24.25;;
34926;SDS011;21132;48.308;14.274;2022-11-30T10:51:04;42.53;;;23.50;;
34926;SDS011;21132;48.308;14.274;2022-11-30T10:53:32;45.92;;;25.40;;
34926;SDS011;21132;48.308;14.274;2022-11-30T11:01:29;40.80;;;22.65;;
34926;SDS011;21132;48.308;14.274;2022-11-30T11:14:33;49.05;;;26.30;;
34926;SDS011;21132;48.308;14.274;2022-11-30T11:17:05;48.90;;;24.23;;
34926;SDS011;21132;48.308;14.274;2022-11-30T11:19:50;39.63;;;23.35;;
34926;SDS011;21132;48.308;14.274;2022-11-30T11:24:47;49.42;;;24.40;;
34926;SDS011;21132;48.308;14.274;2022-11-30T11:27:33;44.90;;;23.67;;
34926;SDS011;21132;48.308;14.274;2022-11-30T11:30:44;45.58;;;24.15;;
34926;SDS011;21132;48.308;14.274;2022-11-30T11:35:34;45.65;;;24.20;;
34926;SDS011;21132;48.308;14.274;2022-11-30T11:38:41;49.08;;;25.92;;
34926;SDS011;21132;48.308;14.274;2022-11-30T11:41:28;49.33;;;26.05;;
34926;SDS011;21132;48.308;14.274;2022-11-30T11:43:59;41.95;;;22.77;;
34926;SDS011;21132;48.308;14.274;2022-11-30T11:46:31;53.30;;;28.33;;
34926;SDS011;21132;48.308;14.274;2022-11-30T11:49:02;49.75;;;27.17;;
34926;SDS011;21132;48.308;14.274;2022-11-30T11:51:34;48.15;;;24.73;;
34926;SDS011;21132;48.308;14.274;2022-11-30T11:56:52;43.17;;;25.30;;
34926;SDS011;21132;48.308;14.274;2022-11-30T12:02:26;42.70;;;24.45;;
34926;SDS011;21132;48.308;14.274;2022-11-30T12:05:01;47.60;;;26.88;;
34926;SDS011;21132;48.308;14.274;2022-11-30T12:07:34;40.88;;;24.30;;
34926;SDS011;21132;48.308;14.274;2022-11-30T12:12:42;43.65;;;24.38;;
34926;SDS011;21132;48.308;14.274;2022-11-30T12:15:09;42.50;;;24.88;;
34926;SDS011;21132;48.308;14.274;2022-11-30T12:20:55;42.35;;;25.27;;
34926;SDS011;21132;48.308;14.274;2022-11-30T12:29:33;45.55;;;26.42;;
34926;SDS011;21132;48.308;14.274;2022-11-30T12:40:53;40.45;;;24.25;;
34926;SDS011;21132;48.308;14.274;2022-11-30T12:43:47;47.90;;;26.50;;
34926;SDS011;21132;48.308;14.274;2022-11-30T12:46:33;51.00;;;27.08;;
34926;SDS011;21132;48.308;14.274;2022-11-30T12:52:05;45.90;;;25.23;;
34926;SDS011;21132;48.308;14.274;2022-11-30T12:55:33;44.65;;;24.80;;
34926;SDS011;21132;48.308;14.274;2022-11-30T13:00:54;47.47;;;25.40;;
34926;SDS011;21132;48.308;14.274;2022-11-30T13:09:01;45.72;;;24.27;;
34926;SDS011;21132;48.308;14.274;2022-11-30T13:14:02;46.28;;;25.70;;
34926;SDS011;21132;48.308;14.274;2022-11-30T13:16:38;46.63;;;25.20;;
34926;SDS011;21132;48.308;14.274;2022-11-30T13:19:13;44.95;;;24.83;;
34926;SDS011;21132;48.308;14.274;2022-11-30T13:21:58;47.78;;;26.70;;
34926;SDS011;21132;48.308;14.274;2022-11-30T13:24:31;49.65;;;24.25;;
34926;SDS011;21132;48.308;14.274;2022-11-30T13:27:18;48.95;;;27.40;;
34926;SDS011;21132;48.308;14.274;2022-11-30T13:32:44;47.03;;;24.58;;
34926;SDS011;21132;48.308;14.274;2022-11-30T13:43:04;45.67;;;24.50;;
34926;SDS011;21132;48.308;14.274;2022-11-30T13:45:38;45.92;;;24.52;;
34926;SDS011;21132;48.308;14.274;2022-11-30T13:48:17;42.95;;;24.55;;
34926;SDS011;21132;48.308;14.274;2022-11-30T13:50:55;41.55;;;24.85;;
34926;SDS011;21132;48.308;14.274;2022-11-30T13:53:25;42.90;;;24.45;;
34926;SDS011;21132;48.308;14.274;2022-11-30T13:58:25;41.90;;;24.05;;
34926;SDS011;21132;48.308;14.274;2022-11-30T14:06:48;39.90;;;23.80;;
34926;SDS011;21132;48.308;14.274;2022-11-30T14:09:16;44.03;;;23.77;;
34926;SDS011;21132;48.308;14.274;2022-11-30T14:14:59;46.70;;;25.33;;
34926;SDS011;21132;48.308;14.274;2022-11-30T14:17:26;39.65;;;23.60;;
34926;SDS011;21132;48.308;14.274;2022-11-30T14:20:13;44.67;;;24.08;;
34926;SDS011;21132;48.308;14.274;2022-11-30T14:22:43;43.30;;;24.65;;
34926;SDS011;21132;48.308;14.274;2022-11-30T14:25:13;46.90;;;25.83;;
34926;SDS011;21132;48.308;14.274;2022-11-30T14:27:42;45.97;;;24.58;;
34926;SDS011;21132;48.308;14.274;2022-11-30T14:30:12;46.63;;;25.52;;
34926;SDS011;21132;48.308;14.274;2022-11-30T14:32:45;41.30;;;22.88;;
34926;SDS011;21132;48.308;14.274;2022-11-30T14:35:17;43.20;;;24.35;;
34926;SDS011;21132;48.308;14.274;2022-11-30T14:40:16;40.60;;;23.92;;
34926;SDS011;21132;48.308;14.274;2022-11-30T14:42:51;47.20;;;25.98;;
34926;SDS011;21132;48.308;14.274;2022-11-30T14:45:20;39.80;;;23.10;;
34926;SDS011;21132;48.308;14.274;2022-11-30T14:48:09;41.08;;;23.90;;
34926;SDS011;21132;48.308;14.274;2022-11-30T14:50:57;34.58;;;21.17;;
34926;SDS011;21132;48.308;14.274;2022-11-30T14:53:33;35.88;;;21.02;;
34926;SDS011;21132;48.308;14.274;2022-11-30T14:58:58;38.38;;;21.95;;
34926;SDS011;21132;48.308;14.274;2022-11-30T15:01:43;35.25;;;20.15;;
34926;SDS011;21132;48.308;14.274;2022-11-30T15:04:10;42.45;;;21.20;;
34926;SDS011;21132;48.308;14.274;2022-11-30T15:06:38;50.10;;;25.98;;
34926;SDS011;21132;48.308;14.274;2022-11-30T15:09:12;48.42;;;26.73;;
34926;SDS011;21132;48.308;14.274;2022-11-30T15:11:44;53.95;;;26.65;;
34926;SDS011;21132;48.308;14.274;2022-11-30T15:14:12;54.03;;;29.52;;
34926;SDS011;21132;48.308;14.274;2022-11-30T15:16:45;64.35;;;33.60;;
34926;SDS011;21132;48.308;14.274;2022-11-30T15:21:45;55.67;;;31.15;;
34926;SDS011;21132;48.308;14.274;2022-11-30T15:24:11;59.78;;;32.25;;
34926;SDS011;21132;48.308;14.274;2022-11-30T15:26:58;51.05;;;30.13;;
34926;SDS011;21132;48.308;14.274;2022-11-30T15:29:33;56.92;;;30.27;;
34926;SDS011;21132;48.308;14.274;2022-11-30T15:32:12;55.97;;;30.30;;
34926;SDS011;21132;48.308;14.274;2022-11-30T15:34:44;66.53;;;31.17;;
34926;SDS011;21132;48.308;14.274;2022-11-30T15:37:13;56.57;;;30.60;;
34926;SDS011;21132;48.308;14.274;2022-11-30T15:39:40;52.83;;;29.20;;
34926;SDS011;21132;48.308;14.274;2022-11-30T15:42:22;60.67;;;33.50;;
34926;SDS011;21132;48.308;14.274;2022-11-30T15:47:42;59.83;;;30.77;;
34926;SDS011;21132;48.308;14.274;2022-11-30T15:52:53;51.10;;;30.10;;
34926;SDS011;21132;48.308;14.274;2022-11-30T15:55:55;59.60;;;30.40;;
34926;SDS011;21132;48.308;14.274;2022-11-30T16:01:15;46.83;;;26.95;;
34926;SDS011;21132;48.308;14.274;2022-11-30T16:06:20;48.70;;;27.80;;
34926;SDS011;21132;48.308;14.274;2022-11-30T16:08:52;56.63;;;29.63;;
34926;SDS011;21132;48.308;14.274;2022-11-30T16:11:20;52.85;;;28.38;;
34926;SDS011;21132;48.308;14.274;2022-11-30T16:13:46;65.07;;;34.47;;
34926;SDS011;21132;48.308;14.274;2022-11-30T16:16:13;56.45;;;33.13;;
34926;SDS011;21132;48.308;14.274;2022-11-30T16:18:44;50.28;;;28.40;;
34926;SDS011;21132;48.308;14.274;2022-11-30T16:21:10;48.15;;;26.45;;
34926;SDS011;21132;48.308;14.274;2022-11-30T16:23:40;40.42;;;23.70;;
34926;SDS011;21132;48.308;14.274;2022-11-30T16:26:16;48.17;;;28.25;;
34926;SDS011;21132;48.308;14.274;2022-11-30T16:28:44;46.85;;;26.23;;
34926;SDS011;21132;48.308;14.274;2022-11-30T16:31:15;49.80;;;26.25;;
34926;SDS011;21132;48.308;14.274;2022-11-30T16:33:42;48.70;;;26.50;;
34926;SDS011;21132;48.308;14.274;2022-11-30T16:36:14;59.15;;;31.60;;
34926;SDS011;21132;48.308;14.274;2022-11-30T16:38:46;55.80;;;32.47;;
34926;SDS011;21132;48.308;14.274;2022-11-30T16:41:21;51.22;;;29.27;;
34926;SDS011;21132;48.308;14.274;2022-11-30T16:43:52;52.97;;;28.67;;
34926;SDS011;21132;48.308;14.274;2022-11-30T16:46:23;54.85;;;31.33;;
34926;SDS011;21132;48.308;14.274;2022-11-30T16:48:50;85.80;;;50.63;;
34926;SDS011;21132;48.308;14.274;2022-11-30T16:51:20;73.50;;;41.88;;
34926;SDS011;21132;48.308;14.274;2022-11-30T16:53:49;59.50;;;33.83;;
34926;SDS011;21132;48.308;14.274;2022-11-30T16:56:15;53.22;;;29.65;;
34926;SDS011;21132;48.308;14.274;2022-11-30T16:58:42;54.45;;;31.05;;
34926;SDS011;21132;48.308;14.274;2022-11-30T17:01:17;48.95;;;27.30;;
34926;SDS011;21132;48.308;14.274;2022-11-30T17:03:48;55.83;;;30.05;;
34926;SDS011;21132;48.308;14.274;2022-11-30T17:06:17;51.03;;;28.13;;
34926;SDS011;21132;48.308;14.274;2022-11-30T17:08:45;51.15;;;27.58;;
34926;SDS011;21132;48.308;14.274;2022-11-30T17:11:26;50.40;;;28.42;;
34926;SDS011;21132;48.308;14.274;2022-11-30T17:13:54;47.80;;;28.33;;
34926;SDS011;21132;48.308;14.274;2022-11-30T17:16:23;51.03;;;28.23;;
34926;SDS011;21132;48.308;14.274;2022-11-30T17:18:50;49.97;;;27.83;;
34926;SDS011;21132;48.308;14.274;2022-11-30T17:21:17;50.25;;;27.27;;
34926;SDS011;21132;48.308;14.274;2022-11-30T17:23:45;45.15;;;25.52;;
34926;SDS011;21132;48.308;14.274;2022-11-30T17:26:12;45.33;;;24.50;;
34926;SDS011;21132;48.308;14.274;2022-11-30T17:28:43;45.53;;;25.40;;
34926;SDS011;21132;48.308;14.274;2022-11-30T17:31:09;46.22;;;27.13;;
34926;SDS011;21132;48.308;14.274;2022-11-30T17:33:36;43.80;;;25.73;;
34926;SDS011;21132;48.308;14.274;2022-11-30T17:36:03;43.88;;;24.85;;
34926;SDS011;21132;48.308;14.274;2022-11-30T17:38:31;46.60;;;25.02;;
34926;SDS011;21132;48.308;14.274;2022-11-30T17:41:01;49.92;;;28.60;;
34926;SDS011;21132;48.308;14.274;2022-11-30T17:43:31;48.28;;;27.60;;
34926;SDS011;21132;48.308;14.274;2022-11-30T17:46:02;55.78;;;29.58;;
34926;SDS011;21132;48.308;14.274;2022-11-30T17:48:32;50.65;;;28.80;;
34926;SDS011;21132;48.308;14.274;2022-11-30T17:50:59;52.75;;;28.95;;
34926;SDS011;21132;48.308;14.274;2022-11-30T17:53:25;48.97;;;28.15;;
34926;SDS011;21132;48.308;14.274;2022-11-30T17:56:11;50.08;;;26.92;;
34926;SDS011;21132;48.308;14.274;2022-11-30T17:58:40;51.03;;;27.00;;
34926;SDS011;21132;48.308;14.274;2022-11-30T18:01:18;50.72;;;28.77;;
34926;SDS011;21132;48.308;14.274;2022-11-30T18:03:49;45.45;;;26.20;;
34926;SDS011;21132;48.308;14.274;2022-11-30T18:06:16;43.20;;;26.00;;
34926;SDS011;21132;48.308;14.274;2022-11-30T18:08:42;51.35;;;25.88;;
34926;SDS011;21132;48.308;14.274;2022-11-30T18:11:09;45.83;;;25.65;;
34926;SDS011;21132;48.308;14.274;2022-11-30T18:13:41;40.85;;;23.30;;
34926;SDS011;21132;48.308;14.274;2022-11-30T18:18:34;44.05;;;24.92;;
34926;SDS011;21132;48.308;14.274;2022-11-30T18:21:05;43.63;;;25.13;;
34926;SDS011;21132;48.308;14.274;2022-11-30T18:23:37;37.92;;;22.38;;
34926;SDS011;21132;48.308;14.274;2022-11-30T18:26:04;44.60;;;24.48;;
34926;SDS011;21132;48.308;14.274;2022-11-30T18:28:32;46.33;;;25.13;;
34926;SDS011;21132;48.308;14.274;2022-11-30T18:30:58;39.85;;;22.80;;
34926;SDS011;21132;48.308;14.274;2022-11-30T18:33:24;44.63;;;24.02;;
34926;SDS011;21132;48.308;14.274;2022-11-30T18:35:51;40.08;;;23.90;;
34926;SDS011;21132;48.308;14.274;2022-11-30T18:38:21;41.90;;;23.48;;
34926;SDS011;21132;48.308;14.274;2022-11-30T18:40:47;46.92;;;26.48;;
34926;SDS011;21132;48.308;14.274;2022-11-30T18:43:13;41.30;;;23.42;;
34926;SDS011;21132;48.308;14.274;2022-11-30T18:45:41;46.53;;;25.48;;
34926;SDS011;21132;48.308;14.274;2022-11-30T18:48:07;39.15;;;22.40;;
34926;SDS011;21132;48.308;14.274;2022-11-30T18:50:33;41.72;;;25.13;;
34926;SDS011;21132;48.308;14.274;2022-11-30T18:52:59;42.60;;;22.85;;
34926;SDS011;21132;48.308;14.274;2022-11-30T18:55:28;38.22;;;22.88;;
34926;SDS011;21132;48.308;14.274;2022-11-30T18:57:55;41.15;;;22.63;;
34926;SDS011;21132;48.308;14.274;2022-11-30T19:00:21;40.67;;;21.63;;
34926;SDS011;21132;48.308;14.274;2022-11-30T19:02:50;41.75;;;23.35;;
34926;SDS011;21132;48.308;14.274;2022-11-30T19:05:17;40.17;;;22.40;;
34926;SDS011;21132;48.308;14.274;2022-11-30T19:08:05;46.65;;;25.85;;
34926;SDS011;21132;48.308;14.274;2022-11-30T19:10:33;45.80;;;25.27;;
34926;SDS011;21132;48.308;14.274;2022-11-30T19:13:01;42.65;;;24.33;;
34926;SDS011;21132;48.308;14.274;2022-11-30T19:15:37;39.83;;;22.92;;
34926;SDS011;21132;48.308;14.274;2022-11-30T19:18:05;42.85;;;22.67;;
34926;SDS011;21132;48.308;14.274;2022-11-30T19:20:37;40.70;;;23.25;;
34926;SDS011;21132;48.308;14.274;2022-11-30T19:23:05;59.40;;;31.38;;
34926;SDS011;21132;48.308;14.274;2022-11-30T19:25:31;168.35;;;86.13;;
34926;SDS011;21132;48.308;14.274;2022-11-30T19:27:58;155.57;;;79.53;;
34926;SDS011;21132;48.308;14.274;2022-11-30T19:30:24;150.85;;;76.80;;
34926;SDS011;21132;48.308;14.274;2022-11-30T19:32:50;87.28;;;44.35;;
34926;SDS011;21132;48.308;14.274;2022-11-30T19:35:18;98.95;;;49.33;;
34926;SDS011;21132;48.308;14.274;2022-11-30T19:37:50;111.03;;;58.53;;
34926;SDS011;21132;48.308;14.274;2022-11-30T19:40:19;90.65;;;49.67;;
34926;SDS011;21132;48.308;14.274;2022-11-30T19:42:48;81.50;;;43.67;;
34926;SDS011;21132;48.308;14.274;2022-11-30T19:45:15;65.68;;;37.28;;
34926;SDS011;21132;48.308;14.274;2022-11-30T19:47:45;58.85;;;31.40;;
34926;SDS011;21132;48.308;14.274;2022-11-30T19:50:12;46.78;;;27.45;;
34926;SDS011;21132;48.308;14.274;2022-11-30T19:52:41;50.58;;;27.95;;
34926;SDS011;21132;48.308;14.274;2022-11-30T19:55:08;40.35;;;25.00;;
34926;SDS011;21132;48.308;14.274;2022-11-30T19:57:37;42.78;;;24.95;;
34926;SDS011;21132;48.308;14.274;2022-11-30T20:00:04;38.80;;;23.38;;
34926;SDS011;21132;48.308;14.274;2022-11-30T20:02:32;44.38;;;24.48;;
34926;SDS011;21132;48.308;14.274;2022-11-30T20:05:00;46.03;;;25.70;;
34926;SDS011;21132;48.308;14.274;2022-11-30T20:07:27;40.47;;;22.55;;
34926;SDS011;21132;48.308;14.274;2022-11-30T20:09:53;41.53;;;23.75;;
34926;SDS011;21132;48.308;14.274;2022-11-30T20:12:24;37.65;;;21.90;;
34926;SDS011;21132;48.308;14.274;2022-11-30T20:14:50;38.63;;;23.15;;
34926;SDS011;21132;48.308;14.274;2022-11-30T20:17:19;39.35;;;21.98;;
34926;SDS011;21132;48.308;14.274;2022-11-30T20:19:49;37.38;;;21.98;;
34926;SDS011;21132;48.308;14.274;2022-11-30T20:22:15;41.08;;;22.13;;
34926;SDS011;21132;48.308;14.274;2022-11-30T20:24:41;41.05;;;22.98;;
34926;SDS011;21132;48.308;14.274;2022-11-30T20:27:08;36.47;;;20.67;;
34926;SDS011;21132;48.308;14.274;2022-11-30T20:29:34;43.47;;;23.90;;
34926;SDS011;21132;48.308;14.274;2022-11-30T20:32:01;39.35;;;23.20;;
34926;SDS011;21132;48.308;14.274;2022-11-30T20:34:27;39.35;;;24.08;;
34926;SDS011;21132;48.308;14.274;2022-11-30T20:36:53;40.55;;;23.92;;
34926;SDS011;21132;48.308;14.274;2022-11-30T20:39:19;42.38;;;23.48;;
34926;SDS011;21132;48.308;14.274;2022-11-30T20:41:45;40.63;;;22.73;;
34926;SDS011;21132;48.308;14.274;2022-11-30T20:44:12;40.92;;;22.33;;
34926;SDS011;21132;48.308;14.274;2022-11-30T20:46:40;39.10;;;23.20;;
34926;SDS011;21132;48.308;14.274;2022-11-30T20:49:13;42.75;;;23.35;;
34926;SDS011;21132;48.308;14.274;2022-11-30T20:51:42;42.65;;;23.65;;
34926;SDS011;21132;48.308;14.274;2022-11-30T20:54:10;40.45;;;23.25;;
34926;SDS011;21132;48.308;14.274;2022-11-30T20:56:37;39.38;;;23.90;;
34926;SDS011;21132;48.308;14.274;2022-11-30T20:59:08;37.00;;;21.40;;
34926;SDS011;21132;48.308;14.274;2022-11-30T21:01:40;38.53;;;21.83;;
34926;SDS011;21132;48.308;14.274;2022-11-30T21:04:07;36.83;;;21.10;;
34926;SDS011;21132;48.308;14.274;2022-11-30T21:06:34;36.10;;;20.98;;
34926;SDS011;21132;48.308;14.274;2022-11-30T21:09:01;35.88;;;20.75;;
34926;SDS011;21132;48.308;14.274;2022-11-30T21:11:28;38.67;;;19.98;;
34926;SDS011;21132;48.308;14.274;2022-11-30T21:13:55;32.30;;;19.52;;
34926;SDS011;21132;48.308;14.274;2022-11-30T21:16:23;32.15;;;19.58;;
34926;SDS011;21132;48.308;14.274;2022-11-30T21:18:53;36.25;;;20.98;;
34926;SDS011;21132;48.308;14.274;2022-11-30T21:21:21;49.78;;;26.55;;
34926;SDS011;21132;48.308;14.274;2022-11-30T21:23:51;46.85;;;25.85;;
34926;SDS011;21132;48.308;14.274;2022-11-30T21:26:22;39.05;;;21.55;;
34926;SDS011;21132;48.308;14.274;2022-11-30T21:28:53;31.25;;;18.83;;
34926;SDS011;21132;48.308;14.274;2022-11-30T21:31:22;32.80;;;17.80;;
34926;SDS011;21132;48.308;14.274;2022-11-30T21:33:49;29.52;;;17.15;;
34926;SDS011;21132;48.308;14.274;2022-11-30T21:36:15;31.83;;;18.35;;
34926;SDS011;21132;48.308;14.274;2022-11-30T21:38:41;33.47;;;16.58;;
34926;SDS011;21132;48.308;14.274;2022-11-30T21:41:08;32.22;;;19.02;;
34926;SDS011;21132;48.308;14.274;2022-11-30T21:43:36;43.55;;;24.08;;
34926;SDS011;21132;48.308;14.274;2022-11-30T21:46:07;32.88;;;18.80;;
34926;SDS011;21132;48.308;14.274;2022-11-30T21:48:36;87.00;;;38.05;;
34926;SDS011;21132;48.308;14.274;2022-11-30T21:51:08;99.90;;;44.38;;
34926;SDS011;21132;48.308;14.274;2022-11-30T21:53:46;68.47;;;33.78;;
34926;SDS011;21132;48.308;14.274;2022-11-30T21:56:17;49.28;;;24.90;;
34926;SDS011;21132;48.308;14.274;2022-11-30T21:58:49;50.47;;;24.92;;
34926;SDS011;21132;48.308;14.274;2022-11-30T22:01:19;52.63;;;26.88;;
34926;SDS011;21132;48.308;14.274;2022-11-30T22:03:53;40.45;;;22.02;;
34926;SDS011;21132;48.308;14.274;2022-11-30T22:06:22;34.13;;;18.92;;
34926;SDS011;21132;48.308;14.274;2022-11-30T22:08:51;30.45;;;17.08;;
34926;SDS011;21132;48.308;14.274;2022-11-30T22:11:21;22.60;;;14.05;;
34926;SDS011;21132;48.308;14.274;2022-11-30T22:13:51;24.50;;;13.73;;
34926;SDS011;21132;48.308;14.274;2022-11-30T22:16:18;20.40;;;12.18;;
34926;SDS011;21132;48.308;14.274;2022-11-30T22:18:50;24.98;;;11.60;;
34926;SDS011;21132;48.308;14.274;2022-11-30T22:21:22;17.80;;;11.35;;
34926;SDS011;21132;48.308;14.274;2022-11-30T22:23:55;24.45;;;15.48;;
34926;SDS011;21132;48.308;14.274;2022-11-30T22:26:43;27.33;;;17.02;;
34926;SDS011;21132;48.308;14.274;2022-11-30T22:29:17;29.15;;;16.45;;
34926;SDS011;21132;48.308;14.274;2022-11-30T22:31:51;21.20;;;13.80;;
34926;SDS011;21132;48.308;14.274;2022-11-30T22:34:20;23.42;;;14.07;;
34926;SDS011;21132;48.308;14.274;2022-11-30T22:36:46;24.77;;;14.07;;
34926;SDS011;21132;48.308;14.274;2022-11-30T22:39:16;21.95;;;13.05;;
34926;SDS011;21132;48.308;14.274;2022-11-30T22:41:44;19.13;;;11.93;;
34926;SDS011;21132;48.308;14.274;2022-11-30T22:44:16;19.33;;;10.98;;
34926;SDS011;21132;48.308;14.274;2022-11-30T22:46:42;16.50;;;10.32;;
34926;SDS011;21132;48.308;14.274;2022-11-30T22:49:10;28.77;;;15.25;;
34926;SDS011;21132;48.308;14.274;2022-11-30T22:51:37;26.17;;;15.43;;
34926;SDS011;21132;48.308;14.274;2022-11-30T22:54:04;27.98;;;16.45;;
34926;SDS011;21132;48.308;14.274;2022-11-30T22:56:34;24.25;;;14.27;;
34926;SDS011;21132;48.308;14.274;2022-11-30T22:59:08;23.73;;;12.40;;
34926;SDS011;21132;48.308;14.274;2022-11-30T23:01:36;20.95;;;12.75;;
34926;SDS011;21132;48.308;14.274;2022-11-30T23:04:08;71.63;;;29.20;;
34926;SDS011;21132;48.308;14.274;2022-11-30T23:06:41;126.70;;;46.65;;
34926;SDS011;21132;48.308;14.274;2022-11-30T23:09:11;143.82;;;52.60;;
34926;SDS011;21132;48.308;14.274;2022-11-30T23:11:43;74.30;;;30.73;;
34926;SDS011;21132;48.308;14.274;2022-11-30T23:14:09;115.18;;;47.03;;
34926;SDS011;21132;48.308;14.274;2022-11-30T23:16:43;104.57;;;42.90;;
34926;SDS011;21132;48.308;14.274;2022-11-30T23:19:15;71.82;;;33.42;;
34926;SDS011;21132;48.308;14.274;2022-11-30T23:21:44;52.55;;;27.00;;
34926;SDS011;21132;48.308;14.274;2022-11-30T23:24:17;46.65;;;24.25;;
34926;SDS011;21132;48.308;14.274;2022-11-30T23:26:49;55.55;;;28.48;;
34926;SDS011;21132;48.308;14.274;2022-11-30T23:29:20;50.03;;;25.50;;
34926;SDS011;21132;48.308;14.274;2022-11-30T23:31:49;41.90;;;22.80;;
34926;SDS011;21132;48.308;14.274;2022-11-30T23:34:20;39.53;;;21.25;;
34926;SDS011;21132;48.308;14.274;2022-11-30T23:36:49;32.25;;;18.35;;
34926;SDS011;21132;48.308;14.274;2022-11-30T23:39:18;32.97;;;15.82;;
34926;SDS011;21132;48.308;14.274;2022-11-30T23:41:47;27.90;;;15.25;;
34926;SDS011;21132;48.308;14.274;2022-11-30T23:44:19;26.58;;;14.85;;
34926;SDS011;21132;48.308;14.274;2022-11-30T23:46:48;29.20;;;15.32;;
34926;SDS011;21132;48.308;14.274;2022-11-30T23:49:16;25.48;;;14.13;;
34926;SDS011;21132;48.308;14.274;2022-11-30T23:51:44;28.52;;;15.43;;
34926;SDS011;21132;48.308;14.274;2022-11-30T23:54:13;24.73;;;13.85;;
34926;SDS011;21132;48.308;14.274;2022-11-30T23:56:39;23.33;;;13.90;;
34926;SDS011;21132;48.308;14.274;2022-11-30T23:59:07;24.05;;;12.63;;
